Time;durP1;ratioP1;P1;durP2;ratioP2;P2;SDS_P1;SDS_P2;PMS_P1;PMS_P2;Temp;Humidity;BMP_temperature;BMP_pressure;BME280_temperature;BME280_humidity;BME280_pressure;Samples;Min_cycle;Max_cycle;Signal;HPM_P1;HPM_P2
2022/11/02 00:01:43;;;;;;;13.73;7.23;;;;;;;12.36;70.23;97598.16;4967492;28;20201;-75
2022/11/02 00:04:10;;;;;;;13.80;7.50;;;;;;;12.35;70.06;97598.19;4968078;28;20280;-75
2022/11/02 00:06:37;;;;;;;13.07;8.67;;;;;;;12.30;69.66;97593.22;4967972;28;20714;-75
2022/11/02 00:09:04;;;;;;;13.33;6.90;;;;;;;12.25;70.20;97587.38;4968099;28;20213;-75
2022/11/02 00:11:31;;;;;;;11.27;7.27;;;;;;;12.36;69.75;97579.97;4967899;28;20745;-75
2022/11/02 00:13:58;;;;;;;14.90;7.37;;;;;;;12.48;69.45;97587.22;4967752;28;20196;-75
2022/11/02 00:16:25;;;;;;;13.93;8.60;;;;;;;12.54;68.69;97580.91;4968057;28;20205;-74
2022/11/02 00:18:55;;;;;;;15.33;7.57;;;;;;;12.61;67.78;97583.16;4967357;28;20624;-75
2022/11/02 00:21:24;;;;;;;12.60;6.90;;;;;;;12.59;67.60;97573.75;4967853;28;20216;-74
2022/11/02 00:23:53;;;;;;;9.37;6.97;;;;;;;12.65;67.49;97578.69;4967693;28;20627;-75
2022/11/02 00:26:20;;;;;;;14.23;7.60;;;;;;;12.67;67.17;97577.69;4967682;28;20299;-75
2022/11/02 00:28:48;;;;;;;10.43;7.30;;;;;;;12.74;67.10;97573.88;4967635;28;20661;-75
2022/11/02 00:31:14;;;;;;;11.83;7.57;;;;;;;12.88;66.45;97568.91;4967586;28;20202;-75
2022/11/02 00:33:41;;;;;;;11.27;6.80;;;;;;;12.82;66.28;97569.19;4966582;28;20221;-75
2022/11/02 00:36:08;;;;;;;10.00;7.10;;;;;;;12.90;65.47;97574.03;4967444;28;20203;-75
2022/11/02 00:38:35;;;;;;;10.87;6.77;;;;;;;12.79;66.02;97566.75;4967539;28;20615;-75
2022/11/02 00:41:02;;;;;;;12.00;7.63;;;;;;;12.78;65.05;97570.22;4966047;28;20202;-75
2022/11/02 00:43:29;;;;;;;12.27;6.50;;;;;;;12.62;65.15;97552.81;4966255;28;20197;-75
2022/11/02 00:45:56;;;;;;;12.17;6.83;;;;;;;12.77;64.63;97560.78;4967441;28;20197;-75
2022/11/02 00:48:23;;;;;;;13.67;7.67;;;;;;;12.74;65.02;97566.09;4967228;28;20197;-75
2022/11/02 00:50:50;;;;;;;12.63;6.60;;;;;;;12.67;65.22;97559.50;4966642;28;20201;-75
2022/11/02 00:53:20;;;;;;;14.13;7.23;;;;;;;12.82;64.87;97566.59;4966119;28;20190;-75
2022/11/02 00:55:52;;;;;;;10.00;6.13;;;;;;;12.83;64.38;97563.09;4966378;28;20181;-75
2022/11/02 00:58:20;;;;;;;11.07;5.90;;;;;;;12.69;64.15;97567.22;4967453;28;20228;-75
2022/11/02 01:00:48;;;;;;;11.43;6.57;;;;;;;12.44;64.23;97553.66;4967863;28;20576;-75
2022/11/02 01:03:15;;;;;;;10.60;6.07;;;;;;;12.38;65.39;97552.19;4966097;28;20211;-74
2022/11/02 01:05:42;;;;;;;12.30;5.87;;;;;;;12.25;66.16;97548.44;4967674;28;20250;-74
2022/11/02 01:08:09;;;;;;;13.37;6.23;;;;;;;12.24;65.83;97552.78;4971452;28;20577;-75
2022/11/02 01:10:36;;;;;;;13.27;7.13;;;;;;;11.61;68.33;97541.69;4971071;28;20184;-75
2022/11/02 01:13:03;;;;;;;9.80;6.37;;;;;;;11.42;69.27;97552.81;4970183;28;20204;-74
2022/11/02 01:15:30;;;;;;;14.37;6.57;;;;;;;11.29;70.61;97549.03;4969691;28;20204;-74
2022/11/02 01:17:57;;;;;;;11.23;6.30;;;;;;;11.04;72.47;97534.53;4970939;28;20228;-74
2022/11/02 01:20:26;;;;;;;12.33;6.23;;;;;;;11.22;72.14;97546.75;4971077;28;20733;-74
2022/11/02 01:22:53;;;;;;;12.47;6.43;;;;;;;11.36;71.95;97540.13;4970745;28;20219;-75
2022/11/02 01:25:20;;;;;;;13.20;6.40;;;;;;;11.28;72.38;97531.81;4971319;28;20195;-75
2022/11/02 01:27:47;;;;;;;12.67;6.40;;;;;;;11.15;73.29;97530.59;4970536;28;20710;-75
2022/11/02 01:30:14;;;;;;;9.97;6.70;;;;;;;11.20;72.91;97533.03;4971164;28;20193;-75
2022/11/02 01:32:42;;;;;;;18.07;7.13;;;;;;;11.20;72.87;97520.91;4969272;28;20660;-75
2022/11/02 01:35:09;;;;;;;11.60;7.00;;;;;;;11.32;73.18;97528.19;4970827;28;20186;-75
2022/11/02 01:37:37;;;;;;;10.93;6.70;;;;;;;11.28;72.78;97529.22;4970665;28;20221;-75
2022/11/02 01:40:04;;;;;;;13.63;7.60;;;;;;;11.22;73.07;97531.22;4953192;28;20221;-75
2022/11/02 01:42:31;;;;;;;11.80;8.27;;;;;;;11.10;73.90;97518.75;4969344;28;20297;-75
2022/11/02 01:44:58;;;;;;;12.10;7.20;;;;;;;11.15;73.41;97517.66;4970217;28;20689;-75
2022/11/02 01:47:30;;;;;;;11.07;7.10;;;;;;;11.03;73.83;97497.41;4970653;28;20280;-75
2022/11/02 01:50:07;;;;;;;14.67;7.30;;;;;;;11.04;74.02;97513.81;4970248;28;20223;-75
2022/11/02 01:52:37;;;;;;;15.70;7.60;;;;;;;11.08;74.13;97511.03;4969030;28;20220;-75
2022/11/02 01:55:28;;;;;;;14.30;7.50;;;;;;;11.03;73.80;97500.00;4969108;28;20243;-74
2022/11/02 01:57:59;;;;;;;11.07;6.93;;;;;;;11.13;74.30;97514.28;4970012;28;20688;-75
2022/11/02 02:00:26;;;;;;;12.90;6.70;;;;;;;11.27;73.30;97511.13;4970377;28;20219;-75
2022/11/02 02:03:00;;;;;;;12.10;5.80;;;;;;;11.43;72.73;97507.84;4969899;28;20203;-75
2022/11/02 02:05:29;;;;;;;13.53;6.10;;;;;;;11.62;71.86;97509.66;4970011;28;20586;-75
2022/11/02 02:07:57;;;;;;;13.57;7.30;;;;;;;11.67;71.32;97494.75;4969927;28;20181;-75
2022/11/02 02:10:24;;;;;;;14.40;6.60;;;;;;;11.81;70.94;97503.66;4969716;28;20197;-75
2022/11/02 02:12:51;;;;;;;10.40;6.43;;;;;;;11.89;70.56;97503.34;4968899;28;20291;-75
2022/11/02 02:15:26;;;;;;;9.63;6.30;;;;;;;12.01;70.10;97505.38;4952551;28;20193;-75
2022/11/02 02:18:12;;;;;;;13.30;6.30;;;;;;;11.95;69.91;97492.69;4952625;28;21061;-74
2022/11/02 02:20:45;;;;;;;9.70;6.27;;;;;;;12.10;69.01;97505.81;4968394;28;20279;-75
2022/11/02 02:23:30;;;;;;;10.33;6.73;;;;;;;12.05;68.99;97507.78;4968494;28;20683;-74
2022/11/02 02:26:24;;;;;;;11.90;6.27;;;;;;;12.08;69.06;97507.63;4969886;28;20193;-74
2022/11/02 02:29:02;;;;;;;10.17;6.90;;;;;;;12.18;68.80;97505.47;4969350;28;20216;-75
2022/11/02 02:31:39;;;;;;;9.07;5.80;;;;;;;12.19;67.96;97507.16;4969884;28;20288;-74
2022/11/02 02:34:15;;;;;;;10.53;6.50;;;;;;;12.13;69.10;97508.28;4951985;28;20197;-75
2022/11/02 02:36:55;;;;;;;13.50;6.17;;;;;;;12.27;67.64;97507.66;4951866;28;20195;-75
2022/11/02 02:39:30;;;;;;;10.23;5.57;;;;;;;12.09;67.40;97511.09;4968161;28;20356;-75
2022/11/02 02:42:04;;;;;;;8.20;6.93;;;;;;;11.85;68.75;97515.56;4967903;28;20644;-74
2022/11/02 02:44:36;;;;;;;11.73;5.93;;;;;;;11.55;69.51;97508.22;4969354;28;20244;-75
2022/11/02 02:47:20;;;;;;;12.60;6.30;;;;;;;11.20;71.25;97513.13;4969224;28;20709;-75
2022/11/02 02:49:54;;;;;;;10.33;6.13;;;;;;;11.02;72.19;97505.25;4967646;28;20216;-74
2022/11/02 02:52:23;;;;;;;12.83;6.67;;;;;;;10.94;73.31;97510.72;4969574;28;20193;-75
2022/11/02 02:54:51;;;;;;;9.23;7.00;;;;;;;10.92;73.47;97511.72;4967768;28;20197;-74
2022/11/02 02:57:21;;;;;;;14.17;6.50;;;;;;;10.83;73.60;97505.13;4969119;28;20194;-75
2022/11/02 02:59:48;;;;;;;17.27;6.43;;;;;;;10.87;73.95;97504.13;4968813;28;20684;-75
2022/11/02 03:02:22;;;;;;;13.27;6.67;;;;;;;10.89;73.96;97507.47;4967463;28;20296;-75
2022/11/02 03:04:49;;;;;;;10.40;6.80;;;;;;;10.92;73.98;97502.16;4951693;28;20185;-75
2022/11/02 03:07:30;;;;;;;14.80;6.70;;;;;;;10.83;74.03;97502.53;4967481;28;20193;-76
2022/11/02 03:10:21;;;;;;;10.53;7.03;;;;;;;10.87;74.09;97500.66;4951669;28;20259;-75
2022/11/02 03:13:08;;;;;;;9.43;6.70;;;;;;;10.85;73.98;97502.47;4968926;28;20198;-76
2022/11/02 03:15:40;;;;;;;9.43;6.77;;;;;;;10.92;74.60;97499.56;4967418;28;20198;-74
2022/11/02 03:18:22;;;;;;;12.60;6.43;;;;;;;10.97;74.11;97496.81;4951425;28;20762;-75
2022/11/02 03:21:02;;;;;;;10.37;6.57;;;;;;;11.00;74.44;97502.72;4951007;28;20624;-75
2022/11/02 03:23:40;;;;;;;8.00;5.27;;;;;;;11.14;73.26;97502.16;4951360;28;20676;-75
2022/11/02 03:26:34;;;;;;;11.03;5.37;;;;;;;11.09;73.72;97497.16;4967288;28;20303;-75
2022/11/02 03:29:07;;;;;;;10.80;6.13;;;;;;;11.12;74.22;97499.63;4966735;28;20194;-75
2022/11/02 03:32:01;;;;;;;12.77;5.90;;;;;;;11.30;73.54;97498.88;4967474;28;20560;-76
2022/11/02 03:34:46;;;;;;;9.80;5.60;;;;;;;11.37;72.32;97494.28;4968477;28;20184;-74
2022/11/02 03:37:38;;;;;;;10.40;5.77;;;;;;;11.26;73.31;97492.13;4951106;28;20192;-75
2022/11/02 03:40:18;;;;;;;11.13;5.80;;;;;;;11.18;72.72;97493.34;4967466;28;20596;-76
2022/11/02 03:42:48;;;;;;;11.00;5.53;;;;;;;11.20;72.87;97497.56;4966954;28;20743;-75
2022/11/02 03:45:22;;;;;;;12.83;5.67;;;;;;;11.15;73.58;97496.06;4968295;28;20188;-75
2022/11/02 03:47:54;;;;;;;11.90;5.90;;;;;;;10.97;72.84;97458.78;4967083;28;20657;-75
2022/11/02 03:50:23;;;;;;;9.40;5.80;;;;;;;11.11;73.05;97484.97;4966747;28;20184;-76
2022/11/02 03:53:15;;;;;;;11.27;5.90;;;;;;;10.91;73.76;97466.81;4968345;28;20580;-75
2022/11/02 03:55:49;;;;;;;9.20;5.87;;;;;;;11.09;73.62;97484.19;4968091;28;20256;-75
2022/11/02 03:58:16;;;;;;;18.90;6.53;;;;;;;11.16;73.65;97479.63;4966897;28;20197;-75
2022/11/02 04:00:49;;;;;;;10.90;6.40;;;;;;;11.15;73.75;97478.75;4966569;28;20340;-75
2022/11/02 04:03:17;;;;;;;13.23;5.57;;;;;;;11.08;73.95;97486.88;4966885;28;20185;-75
2022/11/02 04:05:44;;;;;;;9.00;6.37;;;;;;;11.02;74.31;97482.78;4968292;28;20200;-76
2022/11/02 04:08:29;;;;;;;8.30;6.17;;;;;;;11.06;74.06;97492.13;4966510;28;20268;-75
2022/11/02 04:16:36;;;;;;;10.07;5.57;;;;;;;11.22;73.04;97485.41;4966319;28;20185;-75
2022/11/02 04:19:27;;;;;;;11.80;5.90;;;;;;;11.24;72.77;97482.72;4966835;28;20220;-75
2022/11/02 04:27:34;;;;;;;17.73;5.93;;;;;;;11.28;72.67;97479.09;4966772;28;20192;-75
2022/11/02 04:30:03;;;;;;;16.30;6.33;;;;;;;11.28;72.36;97474.78;4966141;28;20197;-75
2022/11/02 04:35:29;;;;;;;12.30;6.03;;;;;;;11.31;72.68;97479.81;4966452;28;20269;-74
2022/11/02 04:40:44;;;;;;;8.47;5.90;;;;;;;11.41;71.81;97473.34;4966952;28;20259;-74
2022/11/02 04:43:11;;;;;;;11.37;6.77;;;;;;;11.28;72.10;97458.38;4970115;28;20267;-74
2022/11/02 04:45:38;;;;;;;13.37;5.83;;;;;;;11.40;72.07;97473.41;4970111;28;20190;-74
2022/11/02 04:48:08;;;;;;;12.57;6.63;;;;;;;11.51;71.47;97465.16;4970124;28;20185;-75
2022/11/02 04:50:36;;;;;;;11.60;6.00;;;;;;;11.52;71.13;97470.28;4969905;28;20701;-75
2022/11/02 04:53:06;;;;;;;11.23;5.87;;;;;;;11.50;71.57;97464.31;4954051;28;20284;-75
2022/11/02 04:55:34;;;;;;;11.37;6.30;;;;;;;11.63;69.69;97475.03;4969918;28;20214;-75
2022/11/02 04:58:02;;;;;;;9.50;6.67;;;;;;;11.42;69.17;97469.00;4953728;28;20206;-75
2022/11/02 05:00:30;;;;;;;15.10;6.83;;;;;;;11.31;69.18;97474.63;4969561;28;20232;-74
2022/11/02 05:02:57;;;;;;;15.07;6.90;;;;;;;11.24;69.45;97473.22;4971579;28;20197;-75
2022/11/02 05:05:25;;;;;;;10.00;6.13;;;;;;;11.21;68.51;97467.31;4969613;28;20219;-76
2022/11/02 05:07:55;;;;;;;13.00;6.63;;;;;;;11.23;68.51;97466.31;4969569;28;20188;-76
2022/11/02 05:10:22;;;;;;;15.90;6.43;;;;;;;11.13;69.40;97470.22;4969720;28;20198;-75
2022/11/02 05:12:58;;;;;;;14.90;6.20;;;;;;;11.00;70.39;97469.03;4969454;28;20224;-76
2022/11/02 05:15:29;;;;;;;13.17;6.53;;;;;;;10.95;69.91;97476.16;4970089;28;20199;-76
2022/11/02 05:17:58;;;;;;;21.43;6.37;;;;;;;11.13;69.20;97470.22;4953280;28;20242;-76
2022/11/02 05:20:28;;;;;;;9.80;5.33;;;;;;;10.99;68.52;97482.88;4969057;28;20224;-76
2022/11/02 05:22:56;;;;;;;17.70;6.90;;;;;;;11.10;69.02;97479.88;4968886;28;20201;-75
2022/11/02 05:25:23;;;;;;;15.73;6.10;;;;;;;11.11;69.48;97482.38;4936854;28;20546;-75
2022/11/02 05:27:51;;;;;;;17.60;7.47;;;;;;;11.16;68.80;97475.28;4960682;28;20699;-75
2022/11/02 05:30:18;;;;;;;14.20;6.57;;;;;;;11.17;68.07;97476.94;4954188;28;20193;-75
2022/11/02 05:32:46;;;;;;;15.80;6.70;;;;;;;11.24;68.52;97487.91;4969423;28;20277;-76
2022/11/02 05:35:13;;;;;;;18.97;7.63;;;;;;;11.15;68.39;97478.75;4970248;28;20240;-75
2022/11/02 05:37:42;;;;;;;19.07;7.30;;;;;;;11.21;68.12;97488.88;4968814;28;20209;-75
2022/11/02 05:40:09;;;;;;;13.00;7.17;;;;;;;11.32;67.58;97491.88;4968762;28;20697;-75
2022/11/02 05:42:38;;;;;;;16.53;7.00;;;;;;;11.36;67.71;97487.41;4970216;28;20680;-75
2022/11/02 05:45:05;;;;;;;39.03;16.70;;;;;;;11.37;67.00;97478.72;4970398;28;20210;-75
2022/11/02 05:47:33;;;;;;;25.00;9.20;;;;;;;11.50;67.04;97489.44;4969870;28;20553;-75
2022/11/02 05:50:00;;;;;;;19.63;7.77;;;;;;;11.71;66.45;97496.31;4970230;28;20200;-75
2022/11/02 05:52:26;;;;;;;16.50;7.03;;;;;;;11.76;65.89;97490.03;4968273;28;20265;-75
2022/11/02 05:54:53;;;;;;;10.30;5.83;;;;;;;11.87;66.03;97495.59;4969719;28;20209;-74
2022/11/02 05:57:20;;;;;;;19.10;7.27;;;;;;;11.97;66.16;97490.84;4969595;28;20186;-76
2022/11/02 05:59:47;;;;;;;14.77;6.97;;;;;;;12.02;66.01;97479.34;4969412;28;20313;-75
2022/11/02 06:02:15;;;;;;;17.03;8.30;;;;;;;11.90;65.55;97473.84;4970080;28;20195;-75
2022/11/02 06:04:42;;;;;;;16.57;7.77;;;;;;;12.05;65.14;97496.56;4968851;28;20286;-75
2022/11/02 06:07:09;;;;;;;16.30;6.80;;;;;;;12.21;65.66;97494.94;4971061;28;20272;-76
2022/11/02 06:09:36;;;;;;;16.57;7.57;;;;;;;12.27;65.03;97492.94;4959308;28;20211;-75
2022/11/02 06:12:03;;;;;;;23.57;8.27;;;;;;;12.52;64.61;97507.38;4968624;28;20205;-75
2022/11/02 06:14:30;;;;;;;21.03;7.50;;;;;;;12.64;64.73;97502.47;4966919;28;20211;-75
2022/11/02 06:16:56;;;;;;;14.00;8.90;;;;;;;12.81;64.57;97506.88;4983649;28;20255;-75
2022/11/02 06:19:27;;;;;;;17.60;7.13;;;;;;;12.94;63.97;97498.41;4968368;28;20197;-75
2022/11/02 06:21:54;;;;;;;64.07;11.23;;;;;;;12.88;63.92;97480.50;4969208;28;20691;-75
2022/11/02 06:24:21;;;;;;;15.37;7.03;;;;;;;13.22;63.94;97515.31;4969706;28;20217;-75
2022/11/02 06:26:47;;;;;;;18.47;7.77;;;;;;;13.30;63.58;97500.19;4969568;28;20584;-75
2022/11/02 06:29:14;;;;;;;19.07;7.40;;;;;;;13.43;63.80;97506.47;4969551;28;20301;-76
2022/11/02 06:31:41;;;;;;;17.33;8.63;;;;;;;13.51;62.81;97515.59;4969431;28;20279;-75
2022/11/02 06:34:08;;;;;;;14.17;7.20;;;;;;;13.57;63.21;97510.09;4969060;28;20200;-75
2022/11/02 06:36:35;;;;;;;12.87;6.77;;;;;;;13.68;63.17;97517.34;4967785;28;20181;-75
2022/11/02 06:39:02;;;;;;;14.87;7.00;;;;;;;13.70;63.96;97505.09;4935300;28;20194;-75
2022/11/02 06:41:29;;;;;;;10.43;6.47;;;;;;;13.67;63.77;97485.28;4968887;28;20265;-75
2022/11/02 06:43:56;;;;;;;16.20;6.37;;;;;;;13.94;64.23;97509.03;4968742;28;20219;-75
2022/11/02 06:46:23;;;;;;;13.90;5.97;;;;;;;14.13;63.32;97503.72;4967895;28;20713;-75
2022/11/02 06:48:50;;;;;;;19.23;7.63;;;;;;;14.22;63.41;97508.47;4967244;28;20685;-75
2022/11/02 06:51:17;;;;;;;14.67;6.47;;;;;;;14.24;62.73;97485.78;4968883;28;20685;-75
2022/11/02 06:53:44;;;;;;;11.37;5.63;;;;;;;14.54;62.78;97502.41;4967349;28;20296;-75
2022/11/02 06:56:11;;;;;;;20.93;8.57;;;;;;;14.72;62.50;97500.53;4968893;28;20207;-75
2022/11/02 06:58:38;;;;;;;20.63;6.90;;;;;;;14.94;62.16;97493.25;4968918;28;20278;-75
2022/11/02 07:01:07;;;;;;;15.20;6.30;;;;;;;15.13;61.16;97499.94;4968395;28;20227;-75
2022/11/02 07:03:35;;;;;;;16.50;7.40;;;;;;;15.27;61.53;97494.78;4966903;28;20260;-75
2022/11/02 07:06:02;;;;;;;14.90;6.83;;;;;;;15.27;61.09;97486.94;4967194;28;20276;-76
2022/11/02 07:08:29;;;;;;;19.67;6.67;;;;;;;15.48;60.63;97490.13;4968557;28;20342;-75
2022/11/02 07:10:57;;;;;;;17.67;6.57;;;;;;;15.66;60.10;97501.28;4968152;28;20188;-75
2022/11/02 07:13:24;;;;;;;21.97;8.43;;;;;;;15.78;59.28;97498.78;4968402;28;20203;-76
2022/11/02 07:15:52;;;;;;;14.10;6.50;;;;;;;15.91;59.17;97494.50;4968353;28;20195;-75
2022/11/02 07:18:20;;;;;;;15.40;5.87;;;;;;;16.03;58.92;97488.53;4968187;28;20221;-74
2022/11/02 07:20:47;;;;;;;21.17;7.43;;;;;;;16.11;58.73;97475.88;4968560;28;20216;-74
2022/11/02 07:23:14;;;;;;;22.90;7.90;;;;;;;16.28;58.38;97486.13;4966915;28;20583;-74
2022/11/02 07:25:41;;;;;;;16.03;7.00;;;;;;;16.35;57.70;97488.34;4968700;28;20219;-74
2022/11/02 07:28:08;;;;;;;17.63;7.13;;;;;;;16.38;57.15;97483.78;4968312;28;20235;-75
2022/11/02 07:30:35;;;;;;;19.43;8.13;;;;;;;16.51;56.87;97476.88;4968393;28;20204;-74
2022/11/02 07:33:02;;;;;;;16.70;6.53;;;;;;;16.55;56.55;97472.31;4968526;28;20216;-74
2022/11/02 07:35:30;;;;;;;19.87;7.20;;;;;;;16.67;56.46;97474.16;4968022;28;20180;-74
2022/11/02 07:37:59;;;;;;;25.87;10.10;;;;;;;16.71;56.20;97466.00;4968948;28;20596;-75
2022/11/02 07:40:28;;;;;;;15.50;7.67;;;;;;;16.83;55.95;97472.25;4966730;28;20288;-75
2022/11/02 07:42:56;;;;;;;10.57;6.40;;;;;;;16.83;55.84;97475.72;4968216;28;20204;-74
2022/11/02 07:45:35;;;;;;;9.87;6.40;;;;;;;16.95;55.67;97466.22;4967127;28;20200;-74
2022/11/02 07:48:02;;;;;;;18.43;7.37;;;;;;;16.87;55.95;97466.72;4967938;28;20192;-74
2022/11/02 07:50:29;;;;;;;10.13;6.90;;;;;;;17.02;55.24;97463.09;4968161;28;20664;-75
2022/11/02 07:52:57;;;;;;;13.93;7.30;;;;;;;17.19;55.38;97459.41;4967676;28;20281;-75
2022/11/02 07:55:29;;;;;;;11.47;6.90;;;;;;;17.32;54.99;97449.81;4966720;28;20231;-75
2022/11/02 07:58:06;;;;;;;15.33;8.67;;;;;;;17.49;53.87;97453.94;4966282;28;20189;-75
2022/11/02 08:00:36;;;;;;;16.53;7.17;;;;;;;17.54;53.61;97436.16;4967220;28;20223;-75
2022/11/02 08:03:05;;;;;;;19.47;7.50;;;;;;;17.66;53.38;97441.41;4967402;28;20302;-75
2022/11/02 08:05:36;;;;;;;23.07;7.40;;;;;;;17.84;53.40;97453.28;4965988;28;20192;-74
2022/11/02 08:08:08;;;;;;;18.80;7.93;;;;;;;18.02;53.27;97448.53;4968081;28;20755;-75
2022/11/02 08:10:36;;;;;;;10.30;6.27;;;;;;;18.03;52.88;97437.13;4967018;28;20202;-76
2022/11/02 08:13:08;;;;;;;18.80;7.90;;;;;;;18.15;52.92;97440.69;4965982;28;20195;-76
2022/11/02 08:15:35;;;;;;;17.43;7.17;;;;;;;18.31;52.39;97441.28;4966808;28;20558;-75
2022/11/02 08:18:08;;;;;;;12.10;5.60;;;;;;;18.46;51.89;97438.47;4966926;28;20929;-75
2022/11/02 08:20:35;;;;;;;11.23;5.10;;;;;;;18.50;50.90;97433.81;4965785;28;20241;-75
2022/11/02 08:23:04;;;;;;;17.07;5.17;;;;;;;18.62;51.33;97439.03;4965741;28;20288;-75
2022/11/02 08:25:31;;;;;;;12.90;5.23;;;;;;;18.77;50.56;97434.47;4967984;28;20191;-75
2022/11/02 08:27:59;;;;;;;20.03;6.47;;;;;;;18.97;50.16;97438.28;4967045;28;20503;-75
2022/11/02 08:30:28;;;;;;;12.40;5.60;;;;;;;18.98;49.25;97425.03;4967202;28;20207;-75
2022/11/02 08:33:02;;;;;;;11.93;5.90;;;;;;;19.00;49.28;97396.06;4966741;28;20292;-76
2022/11/02 08:35:29;;;;;;;14.77;6.20;;;;;;;19.23;49.48;97429.31;4965819;28;20196;-76
2022/11/02 08:37:58;;;;;;;14.97;5.90;;;;;;;19.35;48.90;97425.84;4965729;28;20908;-75
2022/11/02 08:40:26;;;;;;;15.70;4.80;;;;;;;19.41;48.66;97420.13;4966764;28;20192;-76
2022/11/02 08:43:06;;;;;;;15.27;5.90;;;;;;;19.49;47.91;97415.94;4965640;28;20207;-74
2022/11/02 08:45:35;;;;;;;12.30;6.33;;;;;;;19.57;48.39;97412.75;4949440;28;20730;-76
2022/11/02 08:48:22;;;;;;;17.27;5.77;;;;;;;19.69;50.40;97408.34;4966709;28;20300;-74
2022/11/02 08:50:49;;;;;;;13.90;5.23;;;;;;;20.00;48.68;97415.56;4966623;28;20667;-74
2022/11/02 08:53:16;;;;;;;20.77;5.87;;;;;;;20.09;46.75;97410.41;4965938;28;20691;-73
2022/11/02 08:55:43;;;;;;;12.03;5.70;;;;;;;20.21;48.16;97406.03;4966617;28;20710;-76
2022/11/02 08:58:10;;;;;;;9.40;4.90;;;;;;;20.39;46.20;97407.22;4951106;28;20211;-74
2022/11/02 09:00:37;;;;;;;14.73;5.70;;;;;;;20.43;46.14;97398.13;4965978;28;20630;-75
2022/11/02 09:03:10;;;;;;;15.90;6.60;;;;;;;20.52;46.47;97399.19;4949587;28;20199;-75
2022/11/02 09:05:42;;;;;;;10.70;4.83;;;;;;;20.65;45.06;97386.72;4949387;28;20283;-72
2022/11/02 09:08:15;;;;;;;14.97;4.93;;;;;;;20.71;46.18;97392.31;4967020;28;20385;-74
2022/11/02 09:10:43;;;;;;;11.33;4.47;;;;;;;20.78;45.47;97382.97;4949324;28;20193;-77
2022/11/02 09:13:12;;;;;;;10.50;5.23;;;;;;;20.93;44.06;97380.88;4967068;28;20279;-74
2022/11/02 09:15:39;;;;;;;12.27;5.07;;;;;;;21.10;44.31;97369.84;4948638;28;20296;-79
2022/11/02 09:18:07;;;;;;;20.30;5.30;;;;;;;21.28;43.20;97372.72;4965202;28;20228;-76
2022/11/02 09:20:35;;;;;;;11.60;4.83;;;;;;;21.39;42.97;97377.97;4965297;28;20204;-75
2022/11/02 09:23:03;;;;;;;17.17;5.43;;;;;;;21.57;41.96;97371.13;4966684;28;20193;-79
2022/11/02 09:25:30;;;;;;;12.47;4.43;;;;;;;21.73;41.60;97361.78;4965321;28;20219;-76
2022/11/02 09:27:57;;;;;;;14.67;4.77;;;;;;;21.85;41.43;97359.94;4969087;28;20204;-77
2022/11/02 09:30:25;;;;;;;14.73;5.43;;;;;;;21.99;40.46;97364.84;4970605;28;20665;-75
2022/11/02 09:33:00;;;;;;;12.53;5.27;;;;;;;22.18;40.32;97361.44;4968576;28;20185;-74
2022/11/02 09:35:31;;;;;;;15.67;4.90;;;;;;;22.23;40.17;97352.19;4970508;28;20224;-75
2022/11/02 09:37:59;;;;;;;11.70;5.10;;;;;;;22.33;40.06;97346.94;4970250;28;20224;-76
2022/11/02 09:40:30;;;;;;;11.40;5.30;;;;;;;22.47;39.35;97346.53;4970115;28;20252;-76
2022/11/02 09:43:31;;;;;;;16.67;5.07;;;;;;;22.53;39.47;97346.84;4952633;28;20737;-75
2022/11/02 09:46:03;;;;;;;25.23;5.77;;;;;;;22.49;39.34;97340.16;4969829;28;20194;-78
2022/11/02 09:48:35;;;;;;;13.53;5.07;;;;;;;22.70;39.35;97339.25;4968107;28;20346;-79
2022/11/02 09:51:13;;;;;;;13.67;4.40;;;;;;;22.86;39.06;97340.38;4951903;28;20206;-84
2022/11/02 09:53:53;;;;;;;18.93;5.67;;;;;;;22.90;39.24;97327.72;4968250;28;20203;-82
2022/11/02 09:56:20;;;;;;;17.13;5.60;;;;;;;23.05;38.96;97331.63;4968261;28;20241;-77
2022/11/02 09:58:54;;;;;;;13.97;5.67;;;;;;;23.19;38.31;97333.81;4952129;28;20290;-75
2022/11/02 10:01:37;;;;;;;24.73;5.40;;;;;;;23.36;37.58;97330.50;4952656;28;20271;-75
2022/11/02 10:04:42;;;;;;;16.20;5.20;;;;;;;23.49;37.27;97331.03;4953430;28;20249;-81
2022/11/02 10:07:21;;;;;;;15.93;5.03;;;;;;;23.58;37.01;97319.59;4970971;28;20274;-84
2022/11/02 10:10:26;;;;;;;14.00;5.93;;;;;;;23.79;35.53;97319.38;4970265;28;20203;-70
2022/11/02 10:13:06;;;;;;;17.53;6.20;;;;;;;23.89;35.77;97317.53;4969276;28;20281;-71
2022/11/02 10:15:51;;;;;;;16.60;6.03;;;;;;;23.96;35.03;97318.63;4968818;28;20193;-70
2022/11/02 10:18:24;;;;;;;16.57;6.17;;;;;;;24.12;34.81;97308.28;4948975;28;20312;-70
2022/11/02 10:21:03;;;;;;;21.23;6.33;;;;;;;24.30;34.22;97313.63;4949541;28;20197;-70
2022/11/02 10:23:34;;;;;;;9.37;4.30;;;;;;;24.40;32.65;97307.28;4950155;28;20198;-72
2022/11/02 10:26:02;;;;;;;10.87;4.77;;;;;;;24.44;33.10;97298.03;4950078;28;20198;-71
2022/11/02 10:28:35;;;;;;;34.43;8.23;;;;;;;24.47;33.40;97295.13;4949676;28;20195;-74
2022/11/02 10:31:02;;;;;;;13.73;6.23;;;;;;;24.33;33.46;97258.56;4950473;28;20638;-72
2022/11/02 10:33:30;;;;;;;11.47;6.90;;;;;;;24.30;33.40;97276.56;4949946;28;20304;-72
2022/11/02 10:36:19;;;;;;;16.73;6.63;;;;;;;24.53;31.98;97275.13;4951558;28;20201;-71
2022/11/02 10:39:04;;;;;;;13.53;5.40;;;;;;;24.87;30.23;97269.03;4967994;28;20204;-73
2022/11/02 10:41:40;;;;;;;13.63;4.50;;;;;;;25.04;29.06;97270.00;4935636;28;20224;-72
2022/11/02 10:44:28;;;;;;;12.37;3.40;;;;;;;25.14;28.33;97259.31;4968833;28;20553;-71
2022/11/02 10:47:16;;;;;;;18.30;3.87;;;;;;;25.35;28.00;97265.91;4968333;28;20194;-73
2022/11/02 10:49:55;;;;;;;10.23;3.20;;;;;;;25.56;27.41;97262.94;4967136;28;20322;-70
2022/11/02 10:52:22;;;;;;;12.67;3.67;;;;;;;25.59;26.61;97263.47;4968758;28;20215;-71
2022/11/02 10:54:50;;;;;;;15.80;3.67;;;;;;;25.95;25.89;97258.81;4968214;28;20196;-72
2022/11/02 10:57:24;;;;;;;13.57;3.67;;;;;;;26.08;25.51;97264.53;4969042;28;20194;-72
2022/11/02 11:00:29;;;;;;;12.00;2.80;;;;;;;26.26;25.58;97254.63;4968446;28;20210;-72
2022/11/02 11:03:13;;;;;;;13.40;3.03;;;;;;;26.39;25.37;97248.88;4968584;28;20227;-74
2022/11/02 11:05:49;;;;;;;13.10;3.23;;;;;;;26.46;25.34;97255.19;4968422;28;20278;-71
2022/11/02 11:08:41;;;;;;;12.03;3.10;;;;;;;26.50;25.61;97245.91;4968314;28;20637;-71
2022/11/02 11:11:10;;;;;;;10.30;3.70;;;;;;;26.52;25.35;97241.25;4962499;28;20192;-71
2022/11/02 11:13:39;;;;;;;14.13;3.53;;;;;;;26.52;25.87;97238.59;4968341;28;20285;-71
2022/11/02 11:16:34;;;;;;;14.37;4.33;;;;;;;26.50;25.48;97237.94;4968187;28;20667;-71
2022/11/02 11:19:03;;;;;;;11.23;3.37;;;;;;;26.48;25.26;97240.72;4968240;28;20196;-74
2022/11/02 11:21:50;;;;;;;10.23;3.73;;;;;;;26.53;25.59;97243.75;4964936;28;20313;-72
2022/11/02 11:24:27;;;;;;;12.33;4.47;;;;;;;26.61;25.90;97234.94;4957365;28;20582;-73
2022/11/02 11:27:16;;;;;;;10.00;2.87;;;;;;;26.70;25.89;97241.09;4966070;28;20247;-75
2022/11/02 11:29:54;;;;;;;9.97;3.00;;;;;;;26.76;25.70;97245.78;4967594;28;20288;-77
2022/11/02 11:32:26;;;;;;;11.87;3.47;;;;;;;26.67;25.10;97228.97;4967293;28;20678;-77
2022/11/02 11:35:06;;;;;;;12.17;3.47;;;;;;;26.64;25.74;97242.59;4949800;28;20287;-76
2022/11/02 11:37:33;;;;;;;8.43;3.17;;;;;;;26.65;25.98;97238.94;4972728;28;20255;-76
2022/11/02 11:40:15;;;;;;;9.30;3.03;;;;;;;26.74;25.59;97238.00;4961872;28;20224;-76
2022/11/02 11:42:42;;;;;;;13.50;4.10;;;;;;;26.69;24.73;97232.28;4957007;28;20271;-76
2022/11/02 11:45:24;;;;;;;12.00;3.43;;;;;;;26.57;24.97;97234.44;4947778;28;20765;-76
2022/11/02 11:48:01;;;;;;;12.13;3.53;;;;;;;26.51;24.68;97221.81;4956115;28;20201;-76
2022/11/02 11:50:28;;;;;;;10.10;3.17;;;;;;;26.70;25.01;97230.47;4973146;28;20587;-76
2022/11/02 11:53:26;;;;;;;12.53;3.50;;;;;;;26.79;24.77;97240.97;4957741;28;20562;-76
2022/11/02 11:55:58;;;;;;;8.63;3.07;;;;;;;26.76;24.22;97241.31;4958049;28;20236;-76
2022/11/02 11:58:29;;;;;;;9.23;2.93;;;;;;;26.77;24.27;97236.84;4972813;28;20193;-75
2022/11/02 12:01:11;;;;;;;17.03;3.70;;;;;;;26.75;24.46;97228.19;4958922;28;20631;-74
2022/11/02 12:03:54;;;;;;;14.63;4.07;;;;;;;26.77;25.14;97229.66;4963632;28;20247;-76
2022/11/02 12:06:30;;;;;;;19.03;4.10;;;;;;;26.64;25.98;97231.97;4963936;28;20574;-76